createdAt,value
2019-04-04T00:00:03.455Z,15.28
2019-04-04T00:01:03.448Z,14.99
2019-04-04T00:02:03.432Z,14.59
2019-04-04T00:03:03.418Z,14.98
2019-04-04T00:04:03.406Z,14.48
2019-04-04T00:05:03.402Z,14.59
2019-04-04T00:06:03.384Z,15.38
2019-04-04T00:07:03.415Z,15.38
2019-04-04T00:08:03.362Z,15.28
2019-04-04T00:09:03.349Z,15.38
2019-04-04T00:10:04.068Z,15.09
2019-04-04T00:11:04.079Z,15.29
2019-04-04T00:12:03.316Z,15.38
2019-04-04T00:13:03.315Z,14.99
2019-04-04T00:14:03.288Z,15.59
2019-04-04T00:15:03.282Z,15.39
2019-04-04T00:16:03.266Z,14.68
2019-04-04T00:17:09.417Z,14.89
2019-04-04T00:18:03.257Z,14.99
2019-04-04T00:19:03.271Z,15.39
2019-04-04T00:20:03.224Z,14.98
2019-04-04T00:21:03.278Z,14.89
2019-04-04T00:22:04.907Z,14.88
2019-04-04T00:23:03.193Z,14.99
2019-04-04T00:24:03.177Z,14.99
2019-04-04T00:25:03.170Z,14.89
2019-04-04T00:26:03.158Z,15.18
2019-04-04T00:27:03.140Z,14.98
2019-04-04T00:28:03.127Z,14.79
2019-04-04T00:29:03.122Z,14.69
2019-04-04T00:30:03.110Z,14.99
2019-04-04T00:31:03.133Z,14.99
2019-04-04T00:32:03.090Z,14.99
2019-04-04T00:33:03.075Z,14.68
2019-04-04T00:34:03.061Z,14.99
2019-04-04T00:35:03.052Z,14.99
2019-04-04T00:36:03.354Z,15.19
2019-04-04T00:37:04.723Z,14.69
2019-04-04T00:38:03.021Z,14.89
2019-04-04T00:39:03.003Z,14.98
2019-04-04T00:40:02.995Z,14.89
2019-04-04T00:41:02.989Z,15.09
2019-04-04T00:42:02.983Z,14.79
2019-04-04T00:43:03.058Z,15.09
2019-04-04T00:44:02.949Z,14.69
2019-04-04T00:45:02.935Z,14.69
2019-04-04T00:46:02.933Z,14.48
2019-04-04T00:47:02.913Z,14.68
2019-04-04T00:48:03.582Z,14.48
2019-04-04T00:49:09.296Z,14.89
2019-04-04T00:50:06.085Z,14.39
2019-04-04T00:51:02.863Z,14.99
2019-04-04T00:52:02.857Z,14.69
2019-04-04T00:53:02.850Z,14.38
2019-04-04T00:54:02.832Z,14.38
2019-04-04T00:55:02.826Z,13.99
2019-04-04T00:56:02.806Z,14.19
2019-04-04T00:57:02.827Z,14.38
2019-04-04T00:58:02.793Z,14.38
2019-04-04T00:59:02.814Z,14.39
2019-04-04T01:00:02.767Z,14.38
2019-04-04T01:01:02.754Z,14.19
2019-04-04T01:02:02.737Z,14.48
2019-04-04T01:03:02.729Z,14.69
2019-04-04T01:04:02.715Z,14.38
2019-04-04T01:05:02.717Z,14.08
2019-04-04T01:06:03.585Z,14.78
2019-04-04T01:07:04.694Z,14.38
2019-04-04T01:08:02.670Z,14.18
2019-04-04T01:09:02.696Z,14.88
2019-04-04T01:10:02.647Z,14.68
2019-04-04T01:11:02.642Z,14.88
2019-04-04T01:12:02.638Z,14.88
2019-04-04T01:13:02.614Z,13.89
2019-04-04T01:14:02.606Z,14.88
2019-04-04T01:15:02.607Z,13.89
2019-04-04T01:16:03.322Z,14.88
2019-04-04T01:17:04.120Z,14.48
2019-04-04T01:18:04.073Z,14.48
2019-04-04T01:19:02.550Z,14.59
2019-04-04T01:20:02.534Z,14.29
2019-04-04T01:21:08.940Z,14.69
2019-04-04T01:22:02.516Z,14.69
2019-04-04T01:23:02.499Z,14.49
2019-04-04T01:24:02.491Z,13.79
2019-04-04T01:25:02.490Z,14.48
2019-04-04T01:26:03.515Z,14.69
2019-04-04T01:27:05.919Z,14.59
2019-04-04T01:28:02.446Z,14.69
2019-04-04T01:29:02.436Z,14.49
2019-04-04T01:30:02.420Z,14.58
2019-04-04T01:31:02.405Z,14.18
2019-04-04T01:32:02.441Z,14.48
2019-04-04T01:33:03.822Z,15.19
2019-04-04T01:34:02.371Z,14.49
2019-04-04T01:35:02.363Z,14.49
2019-04-04T01:36:02.355Z,14.29
2019-04-04T01:37:02.346Z,14.49
2019-04-04T01:38:02.343Z,14.49
2019-04-04T01:39:02.318Z,14.29
2019-04-04T01:40:02.871Z,14.29
2019-04-04T01:41:04.327Z,15.19
2019-04-04T01:42:02.289Z,14.89
2019-04-04T01:43:02.275Z,15.09
2019-04-04T01:44:05.260Z,14.89
2019-04-04T01:45:02.246Z,14.28
2019-04-04T01:46:02.235Z,14.68
2019-04-04T01:47:02.230Z,14.98
2019-04-04T01:48:02.222Z,14.89
2019-04-04T01:49:02.243Z,14.88
2019-04-04T01:50:02.215Z,14.18
2019-04-04T01:51:02.181Z,15.18
2019-04-04T01:52:02.165Z,14.69
2019-04-04T01:53:08.541Z,14.68
2019-04-04T01:54:02.141Z,15.18
2019-04-04T01:55:03.415Z,14.88
2019-04-04T01:56:02.123Z,14.88
2019-04-04T01:57:02.108Z,14.88
2019-04-04T01:58:02.100Z,14.68
2019-04-04T01:59:02.091Z,14.78
2019-04-04T02:00:02.088Z,14.88
2019-04-04T02:01:02.065Z,14.68
2019-04-04T02:02:02.048Z,14.69
2019-04-04T02:03:02.037Z,14.68
2019-04-04T02:04:02.028Z,14.69
2019-04-04T02:05:02.056Z,14.28
2019-04-04T02:06:02.005Z,14.79
2019-04-04T02:07:02.008Z,14.68
2019-04-04T02:08:01.979Z,14.78
2019-04-04T02:09:02.847Z,14.68
2019-04-04T02:10:03.241Z,14.48
2019-04-04T02:11:01.959Z,14.68
2019-04-04T02:12:01.938Z,14.68
2019-04-04T02:13:01.966Z,14.68
2019-04-04T02:14:01.913Z,14.68
2019-04-04T02:15:01.909Z,14.69
2019-04-04T02:16:01.895Z,14.58
2019-04-04T02:17:01.881Z,14.58
2019-04-04T02:18:01.865Z,14.48
2019-04-04T02:19:01.867Z,14.68
2019-04-04T02:20:01.850Z,14.48
2019-04-04T02:21:01.833Z,13.98
2019-04-04T02:22:01.822Z,14.58
2019-04-04T02:23:01.959Z,14.48
2019-04-04T02:24:02.084Z,14.78
2019-04-04T02:25:08.261Z,14.39
2019-04-04T02:26:04.898Z,13.89
2019-04-04T02:27:01.765Z,14.79
2019-04-04T02:28:01.754Z,14.59
2019-04-04T02:29:01.743Z,13.89
2019-04-04T02:30:01.773Z,14.69
2019-04-04T02:31:01.731Z,13.78
2019-04-04T02:32:01.708Z,14.78
2019-04-04T02:33:01.698Z,14.18
2019-04-04T02:34:05.368Z,14.78
2019-04-04T02:35:01.767Z,14.18
2019-04-04T02:36:01.712Z,14.88
2019-04-04T02:37:01.650Z,14.58
2019-04-04T02:38:01.647Z,13.98
2019-04-04T02:39:01.631Z,13.68
2019-04-04T02:40:01.614Z,13.89
2019-04-04T02:41:01.611Z,13.89
2019-04-04T02:42:01.604Z,13.89
2019-04-04T02:43:01.581Z,13.78
2019-04-04T02:44:01.571Z,13.89
2019-04-04T02:45:05.088Z,13.89
2019-04-04T02:46:01.544Z,13.59
2019-04-04T02:47:01.539Z,13.89
2019-04-04T02:48:01.537Z,13.89
2019-04-04T02:49:01.555Z,13.99
2019-04-04T02:50:02.283Z,13.98
2019-04-04T02:51:01.493Z,13.58
2019-04-04T02:52:01.491Z,13.58
2019-04-04T02:53:01.519Z,14.08
2019-04-04T02:54:01.458Z,14.58
2019-04-04T02:55:01.447Z,14.48
2019-04-04T02:56:03.323Z,13.78
2019-04-04T02:57:09.213Z,14.28
2019-04-04T02:58:01.406Z,13.89
2019-04-04T02:59:01.418Z,13.58
2019-04-04T03:00:01.419Z,13.89
2019-04-04T03:01:01.379Z,13.58
2019-04-04T03:02:04.881Z,13.89
2019-04-04T03:03:01.357Z,13.48
2019-04-04T03:04:01.343Z,13.89
2019-04-04T03:05:01.375Z,13.58
2019-04-04T03:06:01.321Z,14.38
2019-04-04T03:07:01.302Z,13.58
2019-04-04T03:08:04.170Z,14.48
2019-04-04T03:09:01.304Z,13.89
2019-04-04T03:10:01.285Z,13.98
2019-04-04T03:11:01.306Z,14.68
2019-04-04T03:12:01.298Z,14.78
2019-04-04T03:13:01.243Z,14.88
2019-04-04T03:14:03.684Z,13.98
2019-04-04T03:15:01.219Z,14.69
2019-04-04T03:16:01.203Z,14.49
2019-04-04T03:17:01.236Z,13.68
2019-04-04T03:18:03.915Z,13.89
2019-04-04T03:19:01.171Z,13.99
2019-04-04T03:20:01.165Z,14.69
2019-04-04T03:21:01.142Z,14.39
2019-04-04T03:22:01.144Z,14.69
2019-04-04T03:23:01.498Z,14.99
2019-04-04T03:24:01.115Z,14.79
2019-04-04T03:25:01.107Z,14.50
2019-04-04T03:26:01.093Z,14.49
2019-04-04T03:27:01.125Z,13.69
2019-04-04T03:28:01.074Z,13.79
2019-04-04T03:29:10.439Z,13.90
2019-04-04T03:30:01.067Z,14.19
2019-04-04T03:31:03.106Z,13.49
2019-04-04T03:32:01.031Z,14.39
2019-04-04T03:33:01.029Z,14.69
2019-04-04T03:34:08.697Z,14.29
2019-04-04T03:35:02.118Z,13.99
2019-04-04T03:36:01.363Z,13.99
2019-04-04T03:37:00.968Z,14.39
2019-04-04T03:38:00.953Z,13.69
2019-04-04T03:39:00.946Z,14.39
2019-04-04T03:40:00.944Z,14.69
2019-04-04T03:41:00.917Z,14.19
2019-04-04T03:42:00.919Z,13.89
2019-04-04T03:43:00.904Z,14.79
2019-04-04T03:44:00.898Z,14.19
2019-04-04T03:45:00.879Z,14.49
2019-04-04T03:46:01.648Z,14.39
2019-04-04T03:47:00.857Z,14.29
2019-04-04T03:48:00.845Z,14.79
2019-04-04T03:49:00.868Z,14.59
2019-04-04T03:50:00.813Z,14.69
2019-04-04T03:51:04.040Z,14.59
2019-04-04T03:52:00.795Z,13.69
2019-04-04T03:53:00.791Z,14.49
2019-04-04T03:54:00.779Z,14.89
2019-04-04T03:55:00.824Z,14.69
2019-04-04T03:56:01.573Z,14.99
2019-04-04T03:57:00.735Z,14.69
2019-04-04T03:58:00.726Z,14.59
2019-04-04T03:59:00.820Z,14.79
2019-04-04T04:00:05.597Z,13.69
2019-04-04T04:02:09.870Z,14.99
2019-04-04T04:03:09.851Z,14.49
2019-04-04T04:04:09.842Z,14.19
2019-04-04T04:05:09.831Z,14.69
2019-04-04T04:06:10.094Z,14.39
2019-04-04T04:07:13.814Z,13.69
2019-04-04T04:08:10.792Z,14.69
2019-04-04T04:09:09.792Z,14.69
2019-04-04T04:10:09.783Z,14.69
2019-04-04T04:11:09.763Z,14.59
2019-04-04T04:12:11.130Z,14.59
2019-04-04T04:13:09.738Z,14.59
2019-04-04T04:14:09.729Z,14.69
2019-04-04T04:15:09.721Z,14.79
2019-04-04T04:16:09.719Z,15.00
2019-04-04T04:17:11.590Z,14.79
2019-04-04T04:18:09.704Z,14.89
2019-04-04T04:19:09.676Z,15.09
2019-04-04T04:20:09.663Z,14.69
2019-04-04T04:21:10.928Z,14.69
2019-04-04T04:22:12.707Z,14.69
2019-04-04T04:23:09.629Z,14.89
2019-04-04T04:24:09.625Z,14.89
2019-04-04T04:25:09.600Z,14.99
2019-04-04T04:26:09.955Z,14.79
2019-04-04T04:27:14.436Z,15.19
2019-04-04T04:28:10.567Z,15.19
2019-04-04T04:29:09.590Z,15.19
2019-04-04T04:30:09.549Z,15.19
2019-04-04T04:31:14.177Z,15.19
2019-04-04T04:32:10.514Z,14.89
2019-04-04T04:33:09.502Z,15.18
2019-04-04T04:34:16.151Z,14.88
2019-04-04T04:35:09.490Z,14.88
2019-04-04T04:36:10.237Z,14.98
2019-04-04T04:37:09.456Z,14.68
2019-04-04T04:38:09.453Z,14.39
2019-04-04T04:39:09.433Z,14.79
2019-04-04T04:40:13.625Z,15.18
2019-04-04T04:41:10.415Z,15.08
2019-04-04T04:42:09.402Z,14.88
2019-04-04T04:43:09.391Z,14.18
2019-04-04T04:44:09.378Z,14.58
2019-04-04T04:45:12.156Z,14.58
2019-04-04T04:46:09.391Z,15.08
2019-04-04T04:47:09.343Z,14.98
2019-04-04T04:48:09.328Z,14.98
2019-04-04T04:49:09.325Z,14.68
2019-04-04T04:50:10.010Z,14.68
2019-04-04T04:51:11.513Z,14.88
2019-04-04T04:52:09.293Z,14.38
2019-04-04T04:53:09.281Z,14.58
2019-04-04T04:54:09.256Z,14.08
2019-04-04T04:55:11.873Z,14.98
2019-04-04T04:56:09.237Z,14.98
2019-04-04T04:57:09.225Z,14.88
2019-04-04T04:58:10.273Z,14.48
2019-04-04T04:59:09.204Z,15.28
2019-04-04T05:00:09.189Z,14.98
2019-04-04T05:01:09.183Z,15.08
2019-04-04T05:02:09.180Z,15.38
2019-04-04T05:03:09.158Z,15.08
2019-04-04T05:04:09.157Z,14.87
2019-04-04T05:05:09.129Z,15.27
2019-04-04T05:06:15.219Z,15.17
2019-04-04T05:07:09.114Z,14.87
2019-04-04T05:08:10.213Z,15.17
2019-04-04T05:09:09.091Z,15.27
2019-04-04T05:10:09.112Z,15.37
2019-04-04T05:11:09.062Z,15.77
2019-04-04T05:12:09.047Z,15.67
2019-04-04T05:13:09.040Z,15.97
2019-04-04T05:14:09.034Z,15.58
2019-04-04T05:15:09.019Z,15.88
2019-04-04T05:16:09.067Z,15.98
2019-04-04T05:17:10.215Z,15.38
2019-04-04T05:18:11.788Z,15.48
2019-04-04T05:19:08.975Z,15.58
2019-04-04T05:20:08.994Z,15.48
2019-04-04T05:21:08.946Z,15.38
2019-04-04T05:22:09.247Z,15.08
2019-04-04T05:23:11.095Z,15.48
2019-04-04T05:24:08.914Z,15.48
2019-04-04T05:25:09.149Z,15.49
2019-04-04T05:26:09.736Z,15.98
2019-04-04T05:27:08.884Z,15.48
2019-04-04T05:28:10.888Z,15.89
2019-04-04T05:29:08.866Z,15.49
2019-04-04T05:30:08.843Z,15.48
2019-04-04T05:31:08.856Z,15.68
2019-04-04T05:32:08.822Z,15.98
2019-04-04T05:33:08.810Z,15.48
2019-04-04T05:34:08.797Z,15.28
2019-04-04T05:35:08.788Z,15.38
2019-04-04T05:36:08.778Z,15.58
2019-04-04T05:37:08.811Z,15.28
2019-04-04T05:38:14.839Z,15.39
2019-04-04T05:39:08.756Z,15.48
2019-04-04T05:40:08.731Z,15.38
2019-04-04T05:41:08.735Z,15.48
2019-04-04T05:42:08.720Z,15.68
2019-04-04T05:43:08.734Z,15.68
2019-04-04T05:44:09.958Z,15.98
2019-04-04T05:45:08.676Z,15.78
2019-04-04T05:46:08.656Z,15.48
2019-04-04T05:47:08.653Z,15.38
2019-04-04T05:48:08.662Z,15.18
2019-04-04T05:49:08.674Z,15.28
2019-04-04T05:50:10.919Z,15.48
2019-04-04T05:51:08.598Z,15.38
2019-04-04T05:52:09.174Z,15.27
2019-04-04T05:53:08.591Z,15.88
2019-04-04T05:54:08.618Z,16.48
2019-04-04T05:55:10.833Z,15.88
2019-04-04T05:56:08.549Z,15.27
2019-04-04T05:57:08.537Z,15.47
2019-04-04T05:58:08.522Z,15.58
2019-04-04T05:59:08.521Z,15.37
2019-04-04T06:00:08.530Z,15.47
2019-04-04T06:01:08.485Z,15.88
2019-04-04T06:02:11.024Z,15.17
2019-04-04T06:03:08.484Z,15.17
2019-04-04T06:04:08.458Z,15.27
2019-04-04T06:05:08.475Z,15.37
2019-04-04T06:06:10.503Z,15.28
2019-04-04T06:07:08.429Z,15.78
2019-04-04T06:08:08.804Z,16.08
2019-04-04T06:09:08.405Z,15.48
2019-04-04T06:10:18.128Z,15.48
2019-04-04T06:11:08.369Z,15.58
2019-04-04T06:12:08.379Z,15.98
2019-04-04T06:13:08.351Z,15.38
2019-04-04T06:14:08.333Z,15.59
2019-04-04T06:15:08.324Z,15.89
2019-04-04T06:16:08.315Z,15.99
2019-04-04T06:17:08.300Z,15.99
2019-04-04T06:18:10.963Z,16.39
2019-04-04T06:19:08.282Z,15.69
2019-04-04T06:20:08.267Z,15.39
2019-04-04T06:21:08.251Z,16.08
2019-04-04T06:22:08.242Z,15.78
2019-04-04T06:23:08.232Z,15.58
2019-04-04T06:24:08.238Z,15.28
2019-04-04T06:25:08.252Z,15.48
2019-04-04T06:26:08.206Z,15.69
2019-04-04T06:27:09.102Z,15.88
2019-04-04T06:28:09.909Z,15.59
2019-04-04T06:29:08.165Z,16.09
2019-04-04T06:30:08.215Z,15.79
2019-04-04T06:31:08.139Z,15.79
2019-04-04T06:32:08.131Z,15.69
2019-04-04T06:33:08.114Z,15.49
2019-04-04T06:34:10.118Z,15.59
2019-04-04T06:35:08.096Z,15.49
2019-04-04T06:36:08.080Z,16.09
2019-04-04T06:37:08.069Z,16.09
2019-04-04T06:38:08.064Z,15.59
2019-04-04T06:39:08.058Z,15.89
2019-04-04T06:40:08.079Z,15.59
2019-04-04T06:41:08.023Z,16.29
2019-04-04T06:42:14.101Z,15.69
2019-04-04T06:43:11.502Z,15.79
2019-04-04T06:44:07.992Z,15.69
2019-04-04T06:45:07.976Z,15.59
2019-04-04T06:46:08.026Z,16.49
2019-04-04T06:47:07.973Z,15.99
2019-04-04T06:48:07.940Z,16.09
2019-04-04T06:49:07.930Z,15.68
2019-04-04T06:50:08.548Z,15.39
2019-04-04T06:51:07.909Z,15.79
2019-04-04T06:52:09.371Z,15.98
2019-04-04T06:53:07.887Z,15.89
2019-04-04T06:54:07.871Z,16.28
2019-04-04T06:55:07.865Z,16.19
2019-04-04T06:56:07.850Z,16.29
2019-04-04T06:57:07.874Z,15.99
2019-04-04T06:58:09.427Z,16.39
2019-04-04T06:59:11.335Z,16.49
2019-04-04T07:00:07.808Z,16.09
2019-04-04T07:01:07.805Z,16.39
2019-04-04T07:02:07.785Z,16.30
2019-04-04T07:03:07.808Z,16.09
2019-04-04T07:04:07.754Z,16.09
2019-04-04T07:05:10.386Z,15.99
2019-04-04T07:06:08.083Z,16.00
2019-04-04T07:07:07.718Z,16.09
2019-04-04T07:08:07.712Z,15.70
2019-04-04T07:09:07.708Z,16.00
2019-04-04T07:10:07.684Z,17.40
2019-04-04T07:11:20.597Z,16.80
2019-04-04T07:12:20.312Z,16.30
2019-04-04T07:13:21.164Z,16.69
2019-04-04T07:14:13.725Z,16.20
2019-04-04T07:15:11.004Z,16.20
2019-04-04T07:16:08.233Z,17.00
2019-04-04T07:17:08.685Z,17.39
2019-04-04T07:18:07.596Z,17.19
2019-04-04T07:19:08.210Z,16.99
2019-04-04T07:20:07.577Z,17.78
2019-04-04T07:21:07.566Z,17.79
2019-04-04T07:22:07.547Z,17.29
2019-04-04T07:23:07.570Z,18.19
2019-04-04T07:24:07.525Z,18.29
2019-04-04T07:25:07.516Z,18.49
2019-04-04T07:26:09.638Z,17.39
2019-04-04T07:27:08.488Z,18.30
2019-04-04T07:28:07.487Z,18.19
2019-04-04T07:29:07.494Z,18.40
2019-04-04T07:30:07.452Z,18.10
2019-04-04T07:31:07.440Z,17.60
2019-04-04T07:32:09.544Z,18.19
2019-04-04T07:33:07.422Z,18.10
2019-04-04T07:34:07.408Z,18.19
2019-04-04T07:35:07.436Z,18.99
2019-04-04T07:36:07.385Z,18.90
2019-04-04T07:37:07.369Z,19.60
2019-04-04T07:38:07.359Z,19.60
2019-04-04T07:39:07.349Z,18.90
2019-04-04T07:40:07.338Z,18.90
2019-04-04T07:41:08.416Z,18.70
2019-04-04T07:42:07.319Z,19.10
2019-04-04T07:43:08.758Z,18.90
2019-04-04T07:44:07.287Z,18.30
2019-04-04T07:45:07.285Z,19.40
2019-04-04T07:46:16.664Z,19.40
2019-04-04T07:47:07.255Z,18.30
2019-04-04T07:48:07.243Z,18.90
2019-04-04T07:49:07.244Z,18.40
2019-04-04T07:50:07.219Z,18.71
2019-04-04T07:51:07.211Z,18.21
2019-04-04T07:52:07.204Z,19.90
2019-04-04T07:53:07.183Z,19.42
2019-04-04T07:54:07.925Z,19.12
2019-04-04T07:55:09.879Z,19.51
2019-04-04T07:56:07.155Z,18.91
2019-04-04T07:57:07.137Z,18.81
2019-04-04T07:58:07.151Z,19.71
2019-04-04T07:59:07.121Z,19.12
2019-04-04T08:00:07.106Z,19.01
2019-04-04T08:01:07.114Z,18.91
2019-04-04T08:02:07.077Z,19.21
2019-04-04T08:03:07.071Z,19.01
2019-04-04T08:04:07.061Z,19.21
2019-04-04T08:05:07.048Z,18.62
2019-04-04T08:06:07.033Z,19.21
2019-04-04T08:07:07.041Z,19.21
2019-04-04T08:08:07.014Z,19.31
2019-04-04T08:09:06.997Z,18.62
2019-04-04T08:10:19.543Z,18.91
2019-04-04T08:11:08.021Z,19.01
2019-04-04T08:12:06.963Z,19.51
2019-04-04T08:13:06.955Z,18.41
2019-04-04T08:14:06.943Z,18.62
2019-04-04T08:15:06.928Z,18.91
2019-04-04T08:16:06.917Z,18.91
2019-04-04T08:17:06.913Z,19.21
2019-04-04T08:18:12.980Z,19.21
2019-04-04T08:19:06.884Z,19.01
2019-04-04T08:20:06.876Z,19.12
2019-04-04T08:21:06.865Z,18.60
2019-04-04T08:22:06.960Z,18.51
2019-04-04T08:23:06.838Z,18.71
2019-04-04T08:24:06.834Z,18.51
2019-04-04T08:25:06.813Z,18.10
2019-04-04T08:26:09.876Z,18.51
2019-04-04T08:27:06.792Z,18.01
2019-04-04T08:28:06.826Z,18.21
2019-04-04T08:29:06.772Z,18.30
2019-04-04T08:30:06.758Z,18.30
2019-04-04T08:31:09.636Z,18.71
2019-04-04T08:32:06.740Z,18.71
2019-04-04T08:33:06.726Z,18.51
2019-04-04T08:34:06.748Z,18.21
2019-04-04T08:35:06.699Z,19.01
2019-04-04T08:36:06.839Z,19.31
2019-04-04T08:37:06.677Z,18.71
2019-04-04T08:38:06.660Z,18.80
2019-04-04T08:39:06.661Z,18.60
2019-04-04T08:40:06.649Z,18.60
2019-04-04T08:41:06.633Z,18.60
2019-04-04T08:42:06.616Z,18.80
2019-04-04T08:43:06.607Z,18.21
2019-04-04T08:44:06.596Z,18.71
2019-04-04T08:45:06.589Z,18.71
2019-04-04T08:46:06.577Z,18.21
2019-04-04T08:47:06.561Z,18.01
2019-04-04T08:48:06.550Z,18.30
2019-04-04T08:49:06.540Z,18.30
2019-04-04T08:50:19.620Z,18.21
2019-04-04T08:52:17.290Z,18.10
2019-04-04T08:53:14.690Z,18.10
2019-04-04T08:54:14.684Z,18.30
2019-04-04T08:55:14.671Z,18.30
2019-04-04T08:56:14.701Z,18.10
2019-04-04T08:57:14.642Z,18.21
2019-04-04T08:58:14.648Z,18.10
2019-04-04T08:59:14.625Z,18.10
2019-04-04T09:00:14.608Z,18.10
2019-04-04T09:01:14.605Z,18.21
2019-04-04T09:02:14.595Z,18.21
2019-04-04T09:03:14.579Z,18.51
2019-04-04T09:04:14.562Z,18.30
2019-04-04T09:05:14.555Z,18.10
2019-04-04T09:06:14.544Z,18.10
2019-04-04T09:07:14.569Z,18.21
2019-04-04T09:08:14.517Z,17.90
2019-04-04T09:09:14.514Z,18.51
2019-04-04T09:10:14.497Z,17.90
2019-04-04T09:11:14.485Z,18.51
2019-04-04T09:12:14.481Z,17.90
2019-04-04T09:13:14.493Z,17.80
2019-04-04T09:14:14.451Z,18.01
2019-04-04T09:15:14.443Z,18.21
2019-04-04T09:16:14.428Z,18.10
2019-04-04T09:17:14.420Z,17.40
2019-04-04T09:18:14.404Z,17.90
2019-04-04T09:19:14.430Z,17.50
2019-04-04T09:20:14.378Z,17.40
2019-04-04T09:21:14.368Z,17.21
2019-04-04T09:22:14.377Z,17.00
2019-04-04T09:23:20.436Z,17.40
2019-04-04T09:24:14.335Z,17.49
2019-04-04T09:25:14.340Z,17.40
2019-04-04T09:26:14.315Z,17.40
2019-04-04T09:27:14.299Z,17.69
2019-04-04T09:28:14.293Z,17.10
2019-04-04T09:29:14.280Z,17.19
2019-04-04T09:30:14.303Z,17.60
2019-04-04T09:31:14.257Z,17.10
2019-04-04T09:32:14.247Z,16.80
2019-04-04T09:33:14.236Z,17.49
2019-04-04T09:34:14.219Z,17.40
2019-04-04T09:35:14.213Z,17.49
2019-04-04T09:36:14.211Z,18.10
2019-04-04T09:37:14.192Z,17.49
2019-04-04T09:38:14.178Z,17.19
2019-04-04T09:39:14.166Z,17.40
2019-04-04T09:40:14.151Z,17.10
2019-04-04T09:41:14.152Z,17.40
2019-04-04T09:42:14.128Z,17.00
2019-04-04T09:43:14.124Z,17.69
2019-04-04T09:44:14.103Z,18.10
2019-04-04T09:45:14.098Z,17.40
2019-04-04T09:46:14.091Z,17.80
2019-04-04T09:47:14.088Z,17.00
2019-04-04T09:48:14.056Z,16.89
2019-04-04T09:49:14.053Z,17.40
2019-04-04T09:50:14.038Z,17.19
2019-04-04T09:51:14.023Z,17.00
2019-04-04T09:52:14.014Z,17.49
2019-04-04T09:53:14.039Z,17.30
2019-04-04T09:54:13.988Z,17.40
2019-04-04T09:55:20.069Z,17.19
2019-04-04T09:56:13.977Z,17.69
2019-04-04T09:57:13.956Z,16.89
2019-04-04T09:58:13.949Z,17.40
2019-04-04T09:59:13.947Z,17.40
2019-04-04T10:00:13.924Z,16.89
2019-04-04T10:01:13.910Z,17.69
2019-04-04T10:02:13.901Z,17.10
2019-04-04T10:03:13.887Z,17.30
2019-04-04T10:04:13.910Z,17.19
2019-04-04T10:05:13.864Z,17.10
2019-04-04T10:06:13.856Z,17.60
2019-04-04T10:07:13.843Z,17.79
2019-04-04T10:08:13.835Z,18.10
2019-04-04T10:09:16.074Z,18.19
2019-04-04T10:10:13.826Z,17.69
2019-04-04T10:11:13.793Z,17.99
2019-04-04T10:12:13.784Z,17.90
2019-04-04T10:13:13.772Z,17.49
2019-04-04T10:14:13.759Z,17.19
2019-04-04T10:15:13.751Z,17.90
2019-04-04T10:16:13.750Z,18.10
2019-04-04T10:17:13.729Z,18.40
2019-04-04T10:18:13.717Z,18.49
2019-04-04T10:19:13.706Z,16.79
2019-04-04T10:20:13.732Z,18.19
2019-04-04T10:21:13.690Z,17.40
2019-04-04T10:22:13.667Z,17.30
2019-04-04T10:23:13.658Z,17.49
2019-04-04T10:24:13.648Z,17.40
2019-04-04T10:25:13.638Z,17.80
2019-04-04T10:26:13.664Z,17.40
2019-04-04T10:27:19.768Z,17.90
2019-04-04T10:28:13.600Z,18.10
2019-04-04T10:29:13.590Z,17.90
2019-04-04T10:30:13.587Z,17.90
2019-04-04T10:31:13.575Z,18.10
2019-04-04T10:32:13.591Z,17.80
2019-04-04T10:33:13.543Z,17.69
2019-04-04T10:34:13.535Z,17.80
2019-04-04T10:35:13.524Z,17.60
2019-04-04T10:36:13.508Z,17.60
2019-04-04T10:37:13.495Z,17.90
2019-04-04T10:38:13.524Z,18.10
2019-04-04T10:39:13.478Z,17.69
2019-04-04T10:40:13.469Z,17.19
2019-04-04T10:41:13.451Z,17.80
2019-04-04T10:42:13.446Z,18.01
2019-04-04T10:43:13.430Z,17.40
2019-04-04T10:44:13.428Z,17.90
2019-04-04T10:45:13.402Z,17.40
2019-04-04T10:46:13.398Z,17.10
2019-04-04T10:47:13.405Z,17.19
2019-04-04T10:48:13.376Z,17.30
2019-04-04T10:49:13.400Z,17.00
2019-04-04T10:50:13.351Z,17.80
2019-04-04T10:51:13.340Z,17.49
2019-04-04T10:52:13.331Z,17.30
2019-04-04T10:53:13.311Z,17.49
2019-04-04T10:54:13.309Z,17.40
2019-04-04T10:55:13.309Z,16.69
2019-04-04T10:56:13.284Z,17.40
2019-04-04T10:57:13.271Z,16.80
2019-04-04T10:58:13.255Z,17.00
2019-04-04T10:59:19.628Z,16.39
2019-04-04T11:00:13.255Z,16.89
2019-04-04T11:01:13.233Z,17.80
2019-04-04T11:02:13.210Z,17.60
2019-04-04T11:03:13.199Z,17.30
2019-04-04T11:04:13.187Z,17.40
2019-04-04T11:05:13.216Z,17.60
2019-04-04T11:06:13.166Z,17.60
2019-04-04T11:07:13.150Z,17.21
2019-04-04T11:08:13.144Z,17.10
2019-04-04T11:09:13.135Z,17.50
2019-04-04T11:10:13.120Z,17.10
2019-04-04T11:11:13.122Z,18.10
2019-04-04T11:12:13.120Z,17.21
2019-04-04T11:13:13.088Z,17.50
2019-04-04T11:14:13.075Z,17.71
2019-04-04T11:15:13.061Z,17.71
2019-04-04T11:16:13.063Z,17.30
2019-04-04T11:17:13.035Z,17.10
2019-04-04T11:18:13.028Z,17.40
2019-04-04T11:19:13.015Z,17.30
2019-04-04T11:20:13.006Z,17.21
2019-04-04T11:21:13.033Z,17.00
2019-04-04T11:22:12.996Z,16.91
2019-04-04T11:23:12.974Z,17.50
2019-04-04T11:24:12.961Z,17.00
2019-04-04T11:25:12.950Z,17.40
2019-04-04T11:26:12.937Z,16.80
2019-04-04T11:27:12.939Z,17.30
2019-04-04T11:28:12.918Z,17.30
2019-04-04T11:29:12.905Z,17.60
2019-04-04T11:30:12.890Z,17.60
2019-04-04T11:31:18.969Z,17.50
2019-04-04T11:32:12.875Z,17.00
2019-04-04T11:33:12.854Z,17.30
2019-04-04T11:34:12.842Z,17.00
2019-04-04T11:35:12.832Z,17.49
2019-04-04T11:36:12.820Z,17.30
2019-04-04T11:37:12.822Z,17.40
2019-04-04T11:38:12.797Z,16.89
2019-04-04T11:39:12.786Z,16.89
2019-04-04T11:40:12.774Z,17.00
2019-04-04T11:41:12.765Z,17.90
2019-04-04T11:42:12.788Z,16.69
2019-04-04T11:43:12.745Z,17.30
2019-04-04T11:44:12.735Z,17.19
2019-04-04T11:45:12.722Z,17.19
2019-04-04T11:46:12.706Z,16.50
2019-04-04T11:47:12.692Z,16.41
2019-04-04T11:48:12.730Z,15.91
2019-04-04T11:49:12.677Z,16.00
2019-04-04T11:50:12.665Z,16.09
2019-04-04T11:51:12.654Z,16.89
2019-04-04T11:52:12.638Z,16.69
2019-04-04T11:53:12.629Z,16.80
2019-04-04T11:54:12.628Z,16.80
2019-04-04T11:55:12.601Z,15.80
2019-04-04T11:56:12.592Z,16.69
2019-04-04T11:57:12.577Z,16.30
2019-04-04T11:58:12.566Z,16.09
2019-04-04T11:59:12.580Z,16.00
2019-04-04T12:00:12.547Z,16.30
2019-04-04T12:01:12.535Z,16.80
2019-04-04T12:02:12.524Z,16.20
2019-04-04T12:03:18.909Z,16.09
2019-04-04T12:04:12.501Z,16.20
2019-04-04T12:05:12.511Z,16.09
2019-04-04T12:06:12.476Z,16.09
2019-04-04T12:07:12.466Z,16.30
2019-04-04T12:08:12.457Z,16.00
2019-04-04T12:09:12.466Z,16.10
2019-04-04T12:10:12.435Z,16.00
2019-04-04T12:11:12.465Z,15.89
2019-04-04T12:12:12.408Z,16.39
2019-04-04T12:13:12.399Z,15.80
2019-04-04T12:14:12.390Z,16.00
2019-04-04T12:15:12.378Z,15.80
2019-04-04T12:16:12.365Z,15.70
2019-04-04T12:17:12.364Z,16.50
2019-04-04T12:18:12.344Z,16.00
2019-04-04T12:19:12.335Z,16.30
2019-04-04T12:20:12.319Z,16.30
2019-04-04T12:21:12.326Z,15.30
2019-04-04T12:22:12.299Z,15.70
2019-04-04T12:23:12.283Z,15.70
2019-04-04T12:24:12.277Z,16.09
2019-04-04T12:25:12.266Z,15.89
2019-04-04T12:26:12.252Z,15.59
2019-04-04T12:27:12.279Z,16.09
2019-04-04T12:28:12.225Z,15.70
2019-04-04T12:29:12.215Z,15.89
2019-04-04T12:30:12.209Z,16.39
2019-04-04T12:31:12.195Z,15.70
2019-04-04T12:32:12.187Z,15.50
2019-04-04T12:33:12.179Z,15.70
2019-04-04T12:34:12.159Z,16.09
2019-04-04T12:35:18.539Z,15.30
2019-04-04T12:36:23.827Z,15.30
2019-04-04T12:37:17.040Z,15.50
2019-04-04T12:38:12.132Z,15.50
2019-04-04T12:39:12.104Z,15.30
2019-04-04T12:40:20.530Z,15.30
2019-04-04T12:41:13.083Z,16.00
2019-04-04T12:42:12.066Z,16.00
2019-04-04T12:43:12.058Z,15.80
2019-04-04T12:44:12.063Z,15.39
2019-04-04T12:45:12.030Z,15.50
2019-04-04T12:46:12.030Z,15.89
2019-04-04T12:47:12.013Z,15.70
2019-04-04T12:48:12.003Z,15.60
2019-04-04T12:49:11.988Z,16.10
2019-04-04T12:50:11.982Z,15.20
2019-04-04T12:51:11.962Z,16.00
2019-04-04T12:52:11.955Z,15.50
2019-04-04T12:53:11.943Z,15.50
2019-04-04T12:54:11.933Z,15.59